createdAt,value
2018-06-22T00:01:10.159Z,17.00
2018-06-22T00:03:38.891Z,16.90
2018-06-22T00:08:35.181Z,16.90
2018-06-22T00:11:02.634Z,17.00
2018-06-22T00:13:31.624Z,17.00
2018-06-22T00:16:00.196Z,17.10
2018-06-22T00:18:27.745Z,17.00
2018-06-22T00:20:55.753Z,16.90
2018-06-22T00:23:23.220Z,17.00
2018-06-22T00:25:50.641Z,16.90
2018-06-22T00:28:18.256Z,16.90
2018-06-22T00:30:47.158Z,16.90
2018-06-22T00:33:15.584Z,16.90
2018-06-22T00:35:43.072Z,16.80
2018-06-22T00:38:10.599Z,17.00
2018-06-22T00:40:38.128Z,17.10
2018-06-22T00:43:05.797Z,17.10
2018-06-22T00:45:33.520Z,17.00
2018-06-22T00:48:01.970Z,16.90
2018-06-22T00:52:56.825Z,16.80
2018-06-22T00:55:24.308Z,16.80
2018-06-22T00:57:51.902Z,16.60
2018-06-22T01:02:47.029Z,16.40
2018-06-22T01:05:14.501Z,16.40
2018-06-22T01:07:42.045Z,16.40
2018-06-22T01:10:10.199Z,16.50
2018-06-22T01:22:27.728Z,16.00
2018-06-22T01:24:55.170Z,16.00
2018-06-22T01:27:22.658Z,15.70
2018-06-22T01:29:51.385Z,15.80
2018-06-22T01:32:19.005Z,15.80
2018-06-22T01:34:46.532Z,16.00
2018-06-22T01:37:14.063Z,16.00
2018-06-22T01:42:09.005Z,16.10
2018-06-22T01:56:54.765Z,15.80
2018-06-22T02:01:49.645Z,15.80
2018-06-22T02:04:17.840Z,15.80
2018-06-22T02:06:46.153Z,15.90
2018-06-22T02:09:14.215Z,16.00
2018-06-22T02:11:41.716Z,15.90
2018-06-22T02:14:10.010Z,16.00
2018-06-22T02:16:37.980Z,15.80
2018-06-22T02:19:06.265Z,15.80
2018-06-22T02:21:34.128Z,15.80
2018-06-22T02:24:01.889Z,15.90
2018-06-22T02:26:29.360Z,15.90
2018-06-22T02:28:57.882Z,15.90
2018-06-22T02:31:25.562Z,15.70
2018-06-22T02:33:53.780Z,15.90
2018-06-22T02:38:48.770Z,15.70
2018-06-22T02:41:16.995Z,15.60
2018-06-22T02:43:45.304Z,15.60
2018-06-22T02:46:12.874Z,15.60
2018-06-22T02:48:41.082Z,15.60
2018-06-22T02:51:09.985Z,15.50
2018-06-22T02:53:38.489Z,15.50
2018-06-22T02:56:06.107Z,15.40
2018-06-22T02:58:33.622Z,15.50
2018-06-22T03:01:01.258Z,15.50
2018-06-22T03:03:29.275Z,15.60
2018-06-22T03:05:56.786Z,15.60
2018-06-22T03:08:24.547Z,15.50
2018-06-22T03:10:52.329Z,15.60
2018-06-22T03:13:20.387Z,15.60
2018-06-22T03:15:48.682Z,15.70
2018-06-22T03:18:16.295Z,15.70
2018-06-22T03:20:45.949Z,15.70
2018-06-22T03:23:13.725Z,15.60
2018-06-22T03:25:41.320Z,15.70
2018-06-22T03:28:09.138Z,15.60
2018-06-22T03:30:36.822Z,15.60
2018-06-22T03:33:04.760Z,15.60
2018-06-22T03:37:59.872Z,15.60
2018-06-22T03:40:28.145Z,15.40
2018-06-22T03:42:56.847Z,15.40
2018-06-22T03:45:24.305Z,15.40
2018-06-22T03:50:19.253Z,15.40
2018-06-22T03:55:17.176Z,15.50
2018-06-22T03:57:45.661Z,15.50
2018-06-22T04:00:14.372Z,15.40
2018-06-22T04:05:10.846Z,15.50
2018-06-22T04:10:06.487Z,15.50
2018-06-22T04:12:34.716Z,15.40
2018-06-22T04:15:02.277Z,15.50
2018-06-22T04:17:30.381Z,15.50
2018-06-22T04:19:57.860Z,15.50
2018-06-22T04:22:25.406Z,15.40
2018-06-22T04:24:53.830Z,15.40
2018-06-22T04:27:21.636Z,15.40
2018-06-22T04:32:17.740Z,15.50
2018-06-22T04:34:45.956Z,15.60
2018-06-22T04:37:13.799Z,15.50
2018-06-22T04:39:41.297Z,15.50
2018-06-22T04:42:09.037Z,15.60
2018-06-22T04:44:36.600Z,15.70
2018-06-22T04:47:04.690Z,15.70
2018-06-22T04:49:32.212Z,15.80
2018-06-22T04:52:00.512Z,15.80
2018-06-22T04:54:28.043Z,15.90
2018-06-22T04:56:55.651Z,16.10
2018-06-22T04:59:23.247Z,16.10
2018-06-22T05:01:51.561Z,16.40
2018-06-22T05:04:19.219Z,16.50
2018-06-22T05:06:48.943Z,16.70
2018-06-22T05:09:16.501Z,16.70
2018-06-22T05:11:44.027Z,16.70
2018-06-22T05:14:12.987Z,16.60
2018-06-22T05:16:40.595Z,16.60
2018-06-22T05:19:09.638Z,16.90
2018-06-22T05:21:37.261Z,17.00
2018-06-22T05:24:06.116Z,17.20
2018-06-22T05:26:34.422Z,17.30
2018-06-22T05:29:04.128Z,17.30
2018-06-22T05:31:32.244Z,17.30
2018-06-22T05:34:00.986Z,17.30
2018-06-22T05:36:28.643Z,17.40
2018-06-22T05:38:56.270Z,17.80
2018-06-22T05:41:24.508Z,18.00
2018-06-22T05:43:52.886Z,18.20
2018-06-22T05:46:21.501Z,18.50
2018-06-22T05:48:49.501Z,18.60
2018-06-22T05:51:17.794Z,18.70
2018-06-22T05:53:46.289Z,18.80
2018-06-22T05:56:14.554Z,18.90
2018-06-22T05:58:42.060Z,19.00
2018-06-22T06:01:09.712Z,19.10
2018-06-22T06:03:37.270Z,18.80
2018-06-22T06:06:05.045Z,18.70
2018-06-22T06:08:33.071Z,18.70
2018-06-22T06:11:00.828Z,18.80
2018-06-22T06:13:28.541Z,19.00
2018-06-22T06:15:56.181Z,19.00
2018-06-22T06:18:23.676Z,19.00
2018-06-22T06:20:51.204Z,19.00
2018-06-22T06:23:19.434Z,18.90
2018-06-22T06:25:46.972Z,18.50
2018-06-22T06:28:14.506Z,18.50
2018-06-22T06:30:42.901Z,18.40
2018-06-22T06:33:11.679Z,18.50
2018-06-22T06:35:39.362Z,18.40
2018-06-22T06:38:07.964Z,18.20
2018-06-22T06:40:36.151Z,18.30
2018-06-22T06:43:03.977Z,18.50
2018-06-22T06:45:31.542Z,18.60
2018-06-22T06:50:27.585Z,18.40
2018-06-22T06:55:22.706Z,18.50
2018-06-22T06:57:53.561Z,18.40
2018-06-22T07:02:48.799Z,18.10
2018-06-22T07:05:16.878Z,17.80
2018-06-22T07:07:44.445Z,17.80
2018-06-22T07:10:12.220Z,17.90
2018-06-22T07:12:39.781Z,17.80
2018-06-22T07:15:07.598Z,17.60
2018-06-22T07:17:35.983Z,17.50
2018-06-22T07:20:04.742Z,17.50
2018-06-22T07:22:32.961Z,17.60
2018-06-22T07:25:00.621Z,17.50
2018-06-22T07:27:28.141Z,17.50
2018-06-22T07:29:56.415Z,17.40
2018-06-22T07:32:23.971Z,17.40
2018-06-22T07:34:51.473Z,17.40
2018-06-22T07:37:19.103Z,17.40
2018-06-22T07:39:46.839Z,17.60
2018-06-22T07:42:15.450Z,17.60
2018-06-22T07:47:12.278Z,17.50
2018-06-22T07:49:41.164Z,17.50
2018-06-22T07:52:09.988Z,17.60
2018-06-22T07:54:37.672Z,17.40
2018-06-22T07:57:05.830Z,17.20
2018-06-22T07:59:33.409Z,17.10
2018-06-22T08:02:01.649Z,17.10
2018-06-22T08:04:29.658Z,17.20
2018-06-22T08:06:57.801Z,17.20
2018-06-22T08:11:54.719Z,17.20
2018-06-22T08:14:22.254Z,17.20
2018-06-22T08:16:49.892Z,17.50
2018-06-22T08:19:19.186Z,17.60
2018-06-22T08:21:46.711Z,17.70
2018-06-22T08:24:14.368Z,17.60
2018-06-22T08:26:41.919Z,17.80
2018-06-22T08:29:09.552Z,17.90
2018-06-22T08:31:37.052Z,18.00
2018-06-22T08:34:04.758Z,18.10
2018-06-22T08:36:32.488Z,18.20
2018-06-22T08:39:00.753Z,18.30
2018-06-22T08:41:28.564Z,18.30
2018-06-22T08:43:56.131Z,18.30
2018-06-22T08:46:24.601Z,18.20
2018-06-22T08:48:52.807Z,17.90
2018-06-22T08:51:20.252Z,18.00
2018-06-22T08:56:16.020Z,18.40
2018-06-22T08:58:44.924Z,18.80
2018-06-22T09:01:12.569Z,19.00
2018-06-22T09:03:41.713Z,19.40
2018-06-22T09:06:09.390Z,19.20
2018-06-22T09:08:37.208Z,19.20
2018-06-22T09:11:04.820Z,19.00
2018-06-22T09:13:32.525Z,18.50
2018-06-22T09:16:00.552Z,18.30
2018-06-22T09:18:29.618Z,18.40
2018-06-22T09:20:57.847Z,18.40
2018-06-22T09:23:25.461Z,17.90
2018-06-22T09:25:53.138Z,18.00
2018-06-22T09:28:20.673Z,18.00
2018-06-22T09:30:48.582Z,18.00
2018-06-22T09:33:16.876Z,17.90
2018-06-22T09:35:45.368Z,17.80
2018-06-22T09:38:14.275Z,18.00
2018-06-22T09:40:41.970Z,18.20
2018-06-22T09:43:09.598Z,18.10
2018-06-22T09:48:06.887Z,18.10
2018-06-22T09:50:34.498Z,18.10
2018-06-22T09:53:03.108Z,18.20
2018-06-22T09:57:59.176Z,18.10
2018-06-22T10:00:27.624Z,18.00
2018-06-22T10:02:58.515Z,17.60
2018-06-22T10:05:26.205Z,17.80
2018-06-22T10:07:54.329Z,18.00
2018-06-22T10:10:22.609Z,18.20
2018-06-22T10:12:50.486Z,18.20
2018-06-22T10:15:18.829Z,18.30
2018-06-22T10:17:47.331Z,18.10
2018-06-22T10:20:14.869Z,18.10
2018-06-22T10:22:43.500Z,18.00
2018-06-22T10:25:13.056Z,17.90
2018-06-22T10:32:35.660Z,17.70
2018-06-22T10:37:33.836Z,17.50
2018-06-22T10:42:29.159Z,17.60
2018-06-22T10:47:25.746Z,17.80
2018-06-22T10:49:54.910Z,17.80
2018-06-22T10:54:51.180Z,18.10
2018-06-22T10:57:19.722Z,18.10
2018-06-22T10:59:48.213Z,18.00
2018-06-22T11:02:16.213Z,18.10
2018-06-22T11:04:43.931Z,18.30
2018-06-22T11:07:12.281Z,18.30
2018-06-22T11:09:44.308Z,18.40
2018-06-22T11:12:12.129Z,18.40
2018-06-22T11:14:39.827Z,18.60
2018-06-22T11:19:36.562Z,18.70
2018-06-22T11:22:04.350Z,18.70
2018-06-22T11:26:59.553Z,18.50
2018-06-22T11:31:55.756Z,18.30
2018-06-22T11:34:24.428Z,18.10
2018-06-22T11:36:53.470Z,18.10
2018-06-22T11:39:21.829Z,18.20
2018-06-22T11:41:50.137Z,18.20
2018-06-22T11:44:18.430Z,18.20
2018-06-22T11:49:14.071Z,18.30
2018-06-22T11:51:42.242Z,18.40
2018-06-22T11:54:11.787Z,18.30
2018-06-22T11:56:39.491Z,18.30
2018-06-22T11:59:07.008Z,18.30
2018-06-22T12:01:35.814Z,18.30
2018-06-22T12:04:03.878Z,18.10
2018-06-22T12:06:31.554Z,18.10
2018-06-22T12:08:59.240Z,18.10
2018-06-22T12:13:54.932Z,18.20
2018-06-22T12:16:22.647Z,18.20
2018-06-22T12:18:50.248Z,18.10
2018-06-22T12:21:17.924Z,18.20
2018-06-22T12:23:45.639Z,18.30
2018-06-22T12:26:13.277Z,18.70
2018-06-22T12:28:41.334Z,18.70
2018-06-22T12:31:09.520Z,18.80
2018-06-22T12:33:38.193Z,18.70
2018-06-22T12:36:06.334Z,18.80
2018-06-22T12:38:34.216Z,18.80
2018-06-22T12:41:01.848Z,18.90
2018-06-22T12:45:57.348Z,19.00
2018-06-22T12:48:25.074Z,18.90
2018-06-22T12:50:52.659Z,19.40
2018-06-22T12:55:51.643Z,19.40
2018-06-22T13:00:47.894Z,19.30
2018-06-22T13:03:16.316Z,19.30
2018-06-22T13:08:13.447Z,19.50
2018-06-22T13:10:41.368Z,19.50
2018-06-22T13:15:39.377Z,19.10
2018-06-22T13:18:07.732Z,19.10
2018-06-22T13:20:35.935Z,18.80
2018-06-22T13:23:03.618Z,18.80
2018-06-22T13:25:31.346Z,18.60
2018-06-22T13:30:27.201Z,18.70
2018-06-22T13:37:54.815Z,19.10
2018-06-22T13:40:24.318Z,19.10
2018-06-22T13:42:53.708Z,19.30
2018-06-22T13:45:21.864Z,19.30
2018-06-22T13:50:20.754Z,19.30
2018-06-22T14:02:34.599Z,19.60
2018-06-22T14:05:11.347Z,19.60
2018-06-22T14:07:40.024Z,19.50
2018-06-22T14:10:10.038Z,19.50
2018-06-22T14:15:05.853Z,19.80
2018-06-22T14:17:33.596Z,19.80
2018-06-22T14:20:01.166Z,19.80
2018-06-22T14:22:28.822Z,19.50
2018-06-22T14:24:58.144Z,19.30
2018-06-22T14:27:26.661Z,19.10
2018-06-22T14:29:55.148Z,19.10
2018-06-22T14:32:23.504Z,19.10
2018-06-22T14:34:51.389Z,19.20
2018-06-22T14:37:19.397Z,19.30
2018-06-22T14:39:47.720Z,19.20
2018-06-22T14:42:16.232Z,19.20
2018-06-22T14:44:44.496Z,19.40
2018-06-22T14:47:12.125Z,19.30
2018-06-22T14:49:40.659Z,19.30
2018-06-22T14:52:08.408Z,19.40
2018-06-22T14:55:42.619Z,19.40
2018-06-22T14:58:15.915Z,19.40
2018-06-22T15:00:49.749Z,19.40
2018-06-22T15:03:24.009Z,19.40
2018-06-22T15:05:57.933Z,19.30
2018-06-22T15:18:16.320Z,19.30
2018-06-22T15:20:44.526Z,19.30
2018-06-22T15:23:13.781Z,19.30
2018-06-22T15:25:41.376Z,19.50
2018-06-22T15:28:09.026Z,19.50
2018-06-22T15:30:37.285Z,19.40
2018-06-22T15:33:10.984Z,19.40
2018-06-22T15:35:44.405Z,19.10
2018-06-22T15:38:17.754Z,19.20
2018-06-22T15:43:24.352Z,19.30
2018-06-22T15:45:57.662Z,19.20
2018-06-22T15:48:30.791Z,19.10
2018-06-22T15:51:03.950Z,19.30
2018-06-22T15:53:37.918Z,19.30
2018-06-22T15:58:36.304Z,19.20
2018-06-22T16:01:05.057Z,19.20
2018-06-22T16:03:39.013Z,19.20
2018-06-22T16:06:07.561Z,19.20
2018-06-22T16:08:35.218Z,19.20
2018-06-22T16:11:02.960Z,19.30
2018-06-22T16:13:31.441Z,19.30
2018-06-22T16:16:04.584Z,19.30
2018-06-22T16:18:39.376Z,19.30
2018-06-22T16:21:12.568Z,19.40
2018-06-22T16:24:49.610Z,19.00
2018-06-22T16:27:17.192Z,19.00
2018-06-22T16:29:45.371Z,19.00
2018-06-22T16:32:13.477Z,19.00
2018-06-22T16:34:41.657Z,18.90
2018-06-22T16:37:10.110Z,18.90
2018-06-22T16:39:37.722Z,18.80
2018-06-22T16:42:05.309Z,18.70
2018-06-22T16:44:34.341Z,18.80
2018-06-22T16:47:01.915Z,18.80
2018-06-22T16:49:29.639Z,18.70
2018-06-22T16:51:57.510Z,18.70
2018-06-22T16:54:26.396Z,18.70
2018-06-22T16:56:54.615Z,18.70
2018-06-22T16:59:23.332Z,18.70
2018-06-22T17:01:51.088Z,18.70
2018-06-22T17:04:18.759Z,18.60
2018-06-22T17:06:52.205Z,18.70
2018-06-22T17:09:25.737Z,18.90
2018-06-22T17:12:00.407Z,18.90
2018-06-22T17:18:04.503Z,18.70
2018-06-22T17:20:32.327Z,18.50
2018-06-22T17:22:59.927Z,17.80
2018-06-22T17:25:28.206Z,17.40
2018-06-22T17:27:55.748Z,17.20
2018-06-22T17:30:24.169Z,17.40
2018-06-22T17:32:52.278Z,17.80
2018-06-22T17:35:21.861Z,18.10
2018-06-22T17:37:53.818Z,18.20
2018-06-22T17:40:21.466Z,18.30
2018-06-22T17:42:50.994Z,18.40
2018-06-22T17:45:20.267Z,18.40
2018-06-22T17:47:48.368Z,18.40
2018-06-22T17:50:22.228Z,18.50
2018-06-22T17:52:50.569Z,18.40
2018-06-22T17:57:48.832Z,18.40
2018-06-22T18:00:22.027Z,18.50
2018-06-22T18:08:01.686Z,18.60
2018-06-22T18:10:35.049Z,18.70
2018-06-22T18:13:10.750Z,18.70
2018-06-22T18:15:39.968Z,18.70
2018-06-22T18:18:08.224Z,18.70
2018-06-22T18:20:37.685Z,18.70
2018-06-22T18:23:05.327Z,18.70
2018-06-22T18:25:34.436Z,18.60
2018-06-22T18:37:52.153Z,18.40
2018-06-22T18:40:19.754Z,18.30
2018-06-22T18:42:48.786Z,18.40
2018-06-22T18:45:16.418Z,18.40
2018-06-22T18:47:44.709Z,18.40
2018-06-22T18:50:12.986Z,18.30
2018-06-22T18:52:46.293Z,18.20
2018-06-22T18:55:19.463Z,18.10
2018-06-22T19:00:27.610Z,18.20
2018-06-22T19:03:00.878Z,18.10
2018-06-22T19:05:28.506Z,18.10
2018-06-22T19:07:56.042Z,18.20
2018-06-22T19:10:23.705Z,18.20
2018-06-22T19:12:51.332Z,18.10
2018-06-22T19:15:19.643Z,18.00
2018-06-22T19:17:48.940Z,18.00
2018-06-22T19:20:16.515Z,18.00
2018-06-22T19:22:44.142Z,17.90
2018-06-22T19:25:11.706Z,17.90
2018-06-22T19:27:39.284Z,17.90
2018-06-22T19:30:07.668Z,17.80
2018-06-22T19:32:35.252Z,17.80
2018-06-22T19:35:08.842Z,17.80
2018-06-22T19:37:36.379Z,17.80
2018-06-22T19:42:32.901Z,17.80
2018-06-22T19:45:07.490Z,17.80
2018-06-22T19:47:40.797Z,17.70
2018-06-22T19:50:14.953Z,17.70
2018-06-22T19:55:17.117Z,17.60
2018-06-22T19:57:45.751Z,17.40
2018-06-22T20:00:14.061Z,17.40
2018-06-22T20:02:41.697Z,17.40
2018-06-22T20:15:00.155Z,17.30
2018-06-22T20:17:28.473Z,17.20
2018-06-22T20:19:56.478Z,17.10
2018-06-22T20:22:24.193Z,17.10
2018-06-22T20:24:59.373Z,17.10
2018-06-22T20:27:26.978Z,17.00
2018-06-22T20:29:54.753Z,17.00
2018-06-22T20:32:22.316Z,17.00
2018-06-22T20:34:55.539Z,17.00
2018-06-22T20:37:29.770Z,17.10
2018-06-22T20:40:05.337Z,17.10
2018-06-22T20:42:38.564Z,17.10
2018-06-22T20:45:12.655Z,17.00
2018-06-22T20:47:46.020Z,17.00
2018-06-22T20:50:19.757Z,16.90
2018-06-22T20:52:48.448Z,16.80
2018-06-22T20:55:17.554Z,16.80
2018-06-22T20:57:45.385Z,16.80
2018-06-22T21:00:16.276Z,16.90
2018-06-22T21:02:43.945Z,16.80
2018-06-22T21:05:12.088Z,16.80
2018-06-22T21:07:39.736Z,16.70
2018-06-22T21:10:08.450Z,16.70
2018-06-22T21:12:40.418Z,16.70
2018-06-22T21:15:04.788Z,16.70
2018-06-22T21:17:32.572Z,16.70
2018-06-22T21:20:00.201Z,16.70
2018-06-22T21:22:27.735Z,16.70
2018-06-22T21:24:55.493Z,16.70
2018-06-22T21:27:28.784Z,16.60
2018-06-22T21:30:02.051Z,16.60
2018-06-22T21:32:36.319Z,16.60
2018-06-22T21:35:09.588Z,16.60
2018-06-22T21:37:42.853Z,16.50
2018-06-22T21:40:10.436Z,16.60
2018-06-22T21:42:38.139Z,16.50
2018-06-22T21:45:05.770Z,16.50
2018-06-22T21:47:33.731Z,16.50
2018-06-22T21:50:01.440Z,16.50
2018-06-22T21:52:30.144Z,16.40
2018-06-22T21:54:58.208Z,16.50
2018-06-22T21:57:26.143Z,16.50
2018-06-22T21:59:54.086Z,16.50
2018-06-22T22:02:22.266Z,16.30
2018-06-22T22:04:50.952Z,16.20
2018-06-22T22:07:19.348Z,16.20
2018-06-22T22:09:46.899Z,16.20
2018-06-22T22:12:14.512Z,16.10
2018-06-22T22:14:42.045Z,16.20
2018-06-22T22:17:10.447Z,16.20
2018-06-22T22:19:39.062Z,16.20
2018-06-22T22:22:09.086Z,16.20
2018-06-22T22:24:36.705Z,16.10
2018-06-22T22:27:05.115Z,16.20
2018-06-22T22:32:01.199Z,16.30
2018-06-22T22:34:29.432Z,16.30
2018-06-22T22:36:58.237Z,16.30
2018-06-22T22:39:25.868Z,16.30
2018-06-22T22:41:53.639Z,16.30
2018-06-22T22:44:21.309Z,16.10
2018-06-22T22:46:48.847Z,16.10
2018-06-22T22:49:16.465Z,16.00
2018-06-22T22:51:44.065Z,15.90
2018-06-22T22:54:12.237Z,15.80
2018-06-22T22:56:39.746Z,15.70
2018-06-22T22:59:08.020Z,15.60
2018-06-22T23:01:35.591Z,15.70
2018-06-22T23:04:03.135Z,15.70
2018-06-22T23:08:58.548Z,15.70
2018-06-22T23:11:26.551Z,15.70
2018-06-22T23:13:55.211Z,15.50
2018-06-22T23:16:24.381Z,15.60
2018-06-22T23:18:53.401Z,15.70
2018-06-22T23:23:48.480Z,15.70
2018-06-22T23:26:16.141Z,15.70
2018-06-22T23:28:43.770Z,15.80
2018-06-22T23:31:12.401Z,15.70
2018-06-22T23:33:40.758Z,15.60
2018-06-22T23:36:08.334Z,15.50
2018-06-22T23:38:35.877Z,15.50
2018-06-22T23:41:04.705Z,15.50
2018-06-22T23:43:34.001Z,15.50
2018-06-22T23:46:03.170Z,15.60
2018-06-22T23:48:30.753Z,15.60
2018-06-22T23:50:58.508Z,15.50
2018-06-22T23:53:26.357Z,15.60
2018-06-22T23:55:54.598Z,15.60
2018-06-22T23:58:23.317Z,15.60
